Time;durP1;ratioP1;P1;durP2;ratioP2;P2;SDS_P1;SDS_P2;PMS_P1;PMS_P2;Temp;Humidity;BMP_temperature;BMP_pressure;BME280_temperature;BME280_humidity;BME280_pressure;Samples;Min_cycle;Max_cycle;Signal;HPM_P1;HPM_P2
2023/08/01 00:00:42;;;;;;;0.10;0.10;;;;;;;;;;5039103;28;20249;-73
2023/08/01 00:03:09;;;;;;;0.05;0.05;;;;;;;;;;5056644;28;20210;-74
2023/08/01 00:05:35;;;;;;;0.10;0.10;;;;;;;;;;5038938;28;20449;-73
2023/08/01 00:08:03;;;;;;;0.00;0.00;;;;;;;;;;5057074;28;20365;-73
2023/08/01 00:10:29;;;;;;;0.00;0.00;;;;;;;;;;5038033;28;20250;-73
2023/08/01 00:12:55;;;;;;;0.10;0.10;;;;;;;;;;5057076;28;20215;-74
2023/08/01 00:15:23;;;;;;;0.00;0.00;;;;;;;;;;5036916;28;20243;-73
2023/08/01 00:17:49;;;;;;;0.10;0.10;;;;;;;;;;5058574;28;20218;-71
2023/08/01 00:20:16;;;;;;;0.03;0.03;;;;;;;;;;5035761;28;20290;-72
2023/08/01 00:22:42;;;;;;;0.03;0.03;;;;;;;;;;5059325;28;20223;-72
2023/08/01 00:25:09;;;;;;;0.03;0.03;;;;;;;;;;5035677;28;20206;-72
2023/08/01 00:27:35;;;;;;;0.75;0.75;;;;;;;;;;5059932;28;20292;-73
2023/08/01 00:30:01;;;;;;;0.10;0.10;;;;;;;;;;5044694;28;20274;-72
2023/08/01 00:32:29;;;;;;;0.05;0.05;;;;;;;;;;5050010;28;20267;-73
2023/08/01 00:34:55;;;;;;;0.10;0.10;;;;;;;;;;5044929;28;20235;-72
2023/08/01 00:37:22;;;;;;;0.10;0.10;;;;;;;;;;5050060;28;20595;-72
2023/08/01 00:39:48;;;;;;;0.00;0.00;;;;;;;;;;5045149;28;20456;-72
2023/08/01 00:42:14;;;;;;;0.10;0.10;;;;;;;;;;5049773;28;20246;-72
2023/08/01 00:44:41;;;;;;;0.10;0.10;;;;;;;;;;5044904;28;20276;-72
2023/08/01 00:47:08;;;;;;;0.03;0.03;;;;;;;;;;5049820;28;20248;-72
2023/08/01 00:49:35;;;;;;;0.10;0.10;;;;;;;;;;5044933;28;20206;-72
2023/08/01 00:52:02;;;;;;;0.10;0.10;;;;;;;;;;5048839;28;20313;-72
2023/08/01 00:54:35;;;;;;;0.10;0.10;;;;;;;;;;5044591;28;20266;-72
2023/08/01 00:57:01;;;;;;;0.03;0.03;;;;;;;;;;5048817;28;20492;-72
2023/08/01 00:59:28;;;;;;;0.10;0.10;;;;;;;;;;5044931;28;20218;-73
2023/08/01 01:01:54;;;;;;;0.10;0.10;;;;;;;;;;5047609;28;20303;-73
2023/08/01 01:04:20;;;;;;;0.10;0.10;;;;;;;;;;5046292;28;20208;-72
2023/08/01 01:06:51;;;;;;;0.05;0.05;;;;;;;;;;5046829;28;20295;-73
2023/08/01 01:09:19;;;;;;;0.10;0.10;;;;;;;;;;5046610;28;20244;-73
2023/08/01 01:11:45;;;;;;;0.10;0.10;;;;;;;;;;5046472;28;20560;-73
2023/08/01 01:14:12;;;;;;;0.10;0.10;;;;;;;;;;5047132;28;20205;-73
2023/08/01 01:16:37;;;;;;;0.10;0.10;;;;;;;;;;5045454;28;20263;-73
2023/08/01 01:19:08;;;;;;;0.22;0.22;;;;;;;;;;5048074;28;20207;-73
2023/08/01 01:21:36;;;;;;;0.10;0.10;;;;;;;;;;5044951;28;20236;-72
2023/08/01 01:24:03;;;;;;;0.10;0.10;;;;;;;;;;5048151;28;20247;-72
2023/08/01 01:26:29;;;;;;;0.10;0.10;;;;;;;;;;5044286;28;20241;-72
2023/08/01 01:28:56;;;;;;;0.10;0.10;;;;;;;;;;5048962;28;20212;-72
2023/08/01 01:31:22;;;;;;;1.55;1.55;;;;;;;;;;5043135;28;20236;-72
2023/08/01 01:33:49;;;;;;;0.03;0.03;;;;;;;;;;5049739;28;20275;-72
2023/08/01 01:36:16;;;;;;;0.10;0.10;;;;;;;;;;5042446;28;20506;-72
2023/08/01 01:38:43;;;;;;;2.22;1.27;;;;;;;;;;5050587;28;20452;-72
2023/08/01 01:41:11;;;;;;;0.00;0.00;;;;;;;;;;5041497;28;20257;-72
2023/08/01 01:43:37;;;;;;;0.10;0.10;;;;;;;;;;5051142;28;20224;-71
2023/08/01 01:46:04;;;;;;;0.15;0.15;;;;;;;;;;5040676;28;20264;-72
2023/08/01 01:48:30;;;;;;;0.00;0.00;;;;;;;;;;5052085;28;20205;-72
2023/08/01 01:50:56;;;;;;;0.10;0.10;;;;;;;;;;5039746;28;20245;-72
2023/08/01 01:53:23;;;;;;;0.10;0.10;;;;;;;;;;5052549;28;20238;-72
2023/08/01 01:55:51;;;;;;;0.10;0.10;;;;;;;;;;5038792;28;20515;-72
2023/08/01 01:58:17;;;;;;;0.10;0.10;;;;;;;;;;5053739;28;20281;-72
2023/08/01 02:00:43;;;;;;;0.10;0.10;;;;;;;;;;5037838;28;20332;-72
2023/08/01 02:03:10;;;;;;;0.05;0.05;;;;;;;;;;5054315;28;20531;-73
2023/08/01 02:05:37;;;;;;;0.10;0.10;;;;;;;;;;5037224;28;20482;-73
2023/08/01 02:08:04;;;;;;;0.10;0.10;;;;;;;;;;5055223;28;20244;-74
2023/08/01 02:10:31;;;;;;;0.10;0.10;;;;;;;;;;5036364;28;20318;-73
2023/08/01 02:12:58;;;;;;;0.10;0.10;;;;;;;;;;5055670;28;20238;-74
2023/08/01 02:15:25;;;;;;;0.10;0.10;;;;;;;;;;5035528;28;20257;-74
2023/08/01 02:17:51;;;;;;;0.10;0.10;;;;;;;;;;5056753;28;20429;-74
2023/08/01 02:20:18;;;;;;;0.10;0.10;;;;;;;;;;5034447;28;20205;-73
2023/08/01 02:22:44;;;;;;;0.10;0.10;;;;;;;;;;5057545;28;20246;-74
2023/08/01 02:25:11;;;;;;;0.10;0.10;;;;;;;;;;5033540;28;20246;-73
2023/08/01 02:27:37;;;;;;;0.08;0.08;;;;;;;;;;5058294;28;20281;-73
2023/08/01 02:30:06;;;;;;;0.10;0.10;;;;;;;;;;5043327;28;20458;-73
2023/08/01 02:32:32;;;;;;;0.10;0.10;;;;;;;;;;5048337;28;20312;-74
2023/08/01 02:34:58;;;;;;;0.10;0.10;;;;;;;;;;5044160;28;20268;-73
2023/08/01 02:37:25;;;;;;;0.10;0.10;;;;;;;;;;5052270;28;20299;-73
2023/08/01 02:39:51;;;;;;;0.00;0.00;;;;;;;;;;5047085;28;20377;-74
2023/08/01 02:42:17;;;;;;;0.10;0.10;;;;;;;;;;5052184;28;20297;-74
2023/08/01 02:44:44;;;;;;;0.10;0.10;;;;;;;;;;5047284;28;20206;-74
2023/08/01 02:47:11;;;;;;;0.00;0.00;;;;;;;;;;5052068;28;20243;-74
2023/08/01 02:49:38;;;;;;;0.10;0.10;;;;;;;;;;5047060;28;20280;-74
2023/08/01 02:52:04;;;;;;;0.10;0.10;;;;;;;;;;5051441;28;20478;-74
2023/08/01 02:54:31;;;;;;;0.10;0.10;;;;;;;;;;5046769;28;20310;-73
2023/08/01 02:56:57;;;;;;;0.10;0.10;;;;;;;;;;5050354;28;20246;-73
2023/08/01 02:59:23;;;;;;;0.10;0.10;;;;;;;;;;5048117;28;20236;-74
2023/08/01 03:01:50;;;;;;;0.05;0.05;;;;;;;;;;5049359;28;20244;-74
2023/08/01 03:04:18;;;;;;;0.10;0.10;;;;;;;;;;5049113;28;20239;-73
2023/08/01 03:06:44;;;;;;;0.10;0.10;;;;;;;;;;5048664;28;20240;-74
2023/08/01 03:09:10;;;;;;;0.10;0.10;;;;;;;;;;5049634;28;20297;-74
2023/08/01 03:11:37;;;;;;;0.10;0.10;;;;;;;;;;5047674;28;20239;-74
2023/08/01 03:14:04;;;;;;;0.10;0.10;;;;;;;;;;5050496;28;20204;-73
2023/08/01 03:16:30;;;;;;;0.10;0.10;;;;;;;;;;5046562;28;20244;-73
2023/08/01 03:18:57;;;;;;;0.10;0.10;;;;;;;;;;5051252;28;20492;-74
2023/08/01 03:21:26;;;;;;;0.10;0.10;;;;;;;;;;5045702;28;20236;-73
2023/08/01 03:23:52;;;;;;;0.10;0.10;;;;;;;;;;5051507;28;20248;-74
2023/08/01 03:26:19;;;;;;;0.10;0.10;;;;;;;;;;5045002;28;20257;-73
2023/08/01 03:28:45;;;;;;;0.10;0.10;;;;;;;;;;5052551;28;20236;-74
2023/08/01 03:31:11;;;;;;;0.10;0.10;;;;;;;;;;5044052;28;20352;-73
2023/08/01 03:33:38;;;;;;;0.10;0.10;;;;;;;;;;5053371;28;20514;-72
2023/08/01 03:36:04;;;;;;;0.10;0.10;;;;;;;;;;5043020;28;20288;-73
2023/08/01 03:38:32;;;;;;;0.10;0.10;;;;;;;;;;5054193;28;20206;-72
2023/08/01 03:40:59;;;;;;;0.10;0.10;;;;;;;;;;5042141;28;20298;-72
2023/08/01 03:43:27;;;;;;;0.10;0.10;;;;;;;;;;5054602;28;20471;-73
2023/08/01 03:45:53;;;;;;;0.10;0.10;;;;;;;;;;5041209;28;20267;-73
2023/08/01 03:48:19;;;;;;;0.10;0.10;;;;;;;;;;5055283;28;20268;-73
2023/08/01 03:50:46;;;;;;;0.05;0.05;;;;;;;;;;5040303;28;20272;-74
2023/08/01 03:53:12;;;;;;;0.10;0.10;;;;;;;;;;5055729;28;20264;-73
2023/08/01 03:55:40;;;;;;;0.10;0.10;;;;;;;;;;5038781;28;20308;-73
2023/08/01 03:58:06;;;;;;;0.10;0.10;;;;;;;;;;5057020;28;20209;-74
2023/08/01 04:00:33;;;;;;;0.03;0.03;;;;;;;;;;5038575;28;20449;-73
2023/08/01 04:03:01;;;;;;;0.10;0.10;;;;;;;;;;5057257;28;20291;-74
2023/08/01 04:05:27;;;;;;;0.05;0.05;;;;;;;;;;5037501;28;20252;-73
2023/08/01 04:07:54;;;;;;;0.10;0.10;;;;;;;;;;5058211;28;20205;-73
2023/08/01 04:10:21;;;;;;;0.10;0.10;;;;;;;;;;5036830;28;20205;-73
2023/08/01 04:12:49;;;;;;;0.10;0.10;;;;;;;;;;5059061;28;20236;-73
2023/08/01 04:15:15;;;;;;;0.10;0.10;;;;;;;;;;5035733;28;20205;-73
2023/08/01 04:17:41;;;;;;;0.65;0.65;;;;;;;;;;5059687;28;20224;-72
2023/08/01 04:20:08;;;;;;;0.03;0.03;;;;;;;;;;5039410;28;20420;-73
2023/08/01 04:22:35;;;;;;;0.10;0.10;;;;;;;;;;5060285;28;20300;-73
2023/08/01 04:25:02;;;;;;;0.10;0.10;;;;;;;;;;5044848;28;20204;-74
2023/08/01 04:27:28;;;;;;;0.10;0.10;;;;;;;;;;5049983;28;20242;-73
2023/08/01 04:29:56;;;;;;;0.10;0.10;;;;;;;;;;5044709;28;20211;-74
2023/08/01 04:32:22;;;;;;;0.10;0.10;;;;;;;;;;5050042;28;20563;-73
2023/08/01 04:34:49;;;;;;;0.10;0.10;;;;;;;;;;5045178;28;20243;-74
2023/08/01 04:37:15;;;;;;;0.10;0.10;;;;;;;;;;5049809;28;20303;-74
2023/08/01 04:39:41;;;;;;;0.30;0.30;;;;;;;;;;5045100;28;20275;-73
2023/08/01 04:42:08;;;;;;;0.10;0.10;;;;;;;;;;5049799;28;20299;-74
2023/08/01 04:44:34;;;;;;;0.03;0.03;;;;;;;;;;5045018;28;20213;-74
2023/08/01 04:47:02;;;;;;;0.05;0.05;;;;;;;;;;5048647;28;20303;-74
2023/08/01 04:49:28;;;;;;;0.10;0.10;;;;;;;;;;5045616;28;20256;-71
2023/08/01 04:51:54;;;;;;;0.10;0.10;;;;;;;;;;5047727;28;20258;-74
2023/08/01 04:54:21;;;;;;;0.00;0.00;;;;;;;;;;5045910;28;20264;-73
2023/08/01 04:56:47;;;;;;;0.10;0.10;;;;;;;;;;5046808;28;20314;-73
2023/08/01 04:59:13;;;;;;;0.10;0.10;;;;;;;;;;5046677;28;20237;-74
2023/08/01 05:01:40;;;;;;;0.10;0.10;;;;;;;;;;5045729;28;20383;-73
2023/08/01 05:04:07;;;;;;;0.10;0.10;;;;;;;;;;5047853;28;20235;-74
2023/08/01 05:06:34;;;;;;;0.25;0.25;;;;;;;;;;5044943;28;20323;-73
2023/08/01 05:09:01;;;;;;;0.10;0.10;;;;;;;;;;5048620;28;20272;-73
2023/08/01 05:11:27;;;;;;;0.10;0.10;;;;;;;;;;5043960;28;20246;-74
2023/08/01 05:13:53;;;;;;;0.10;0.10;;;;;;;;;;5049193;28;20417;-72
2023/08/01 05:16:20;;;;;;;0.10;0.10;;;;;;;;;;5043244;28;20440;-73
2023/08/01 05:18:46;;;;;;;0.10;0.10;;;;;;;;;;5050202;28;20510;-72
2023/08/01 05:21:14;;;;;;;0.10;0.10;;;;;;;;;;5041958;28;20309;-74
2023/08/01 05:23:40;;;;;;;0.10;0.10;;;;;;;;;;5051094;28;20454;-74
2023/08/01 05:26:09;;;;;;;0.10;0.10;;;;;;;;;;5041105;28;20566;-74
2023/08/01 05:28:35;;;;;;;0.10;0.10;;;;;;;;;;5051639;28;20212;-73
2023/08/01 05:31:02;;;;;;;0.68;0.68;;;;;;;;;;5040506;28;20275;-74
2023/08/01 05:33:28;;;;;;;0.10;0.10;;;;;;;;;;5052364;28;20201;-72
2023/08/01 05:35:54;;;;;;;0.10;0.10;;;;;;;;;;5039349;28;20306;-73
2023/08/01 05:38:24;;;;;;;0.10;0.10;;;;;;;;;;5053231;28;20195;-73
2023/08/01 05:40:50;;;;;;;0.10;0.10;;;;;;;;;;5039036;28;20259;-74
2023/08/01 05:43:17;;;;;;;0.10;0.10;;;;;;;;;;5053634;28;20257;-74
2023/08/01 05:45:44;;;;;;;0.10;0.10;;;;;;;;;;5037816;28;20317;-72
2023/08/01 05:48:10;;;;;;;0.10;0.10;;;;;;;;;;5054525;28;20208;-74
2023/08/01 05:50:37;;;;;;;0.10;0.10;;;;;;;;;;5036903;28;20279;-73
2023/08/01 05:53:03;;;;;;;0.10;0.10;;;;;;;;;;5054689;28;20233;-74
2023/08/01 05:55:31;;;;;;;1.03;1.03;;;;;;;;;;5035195;28;20310;-73
2023/08/01 05:57:58;;;;;;;0.10;0.10;;;;;;;;;;5055362;28;20541;-73
2023/08/01 06:00:24;;;;;;;0.10;0.10;;;;;;;;;;5033829;28;20209;-73
2023/08/01 06:02:50;;;;;;;0.10;0.10;;;;;;;;;;5056128;28;20261;-72
2023/08/01 06:05:17;;;;;;;0.10;0.10;;;;;;;;;;5033651;28;20212;-73
2023/08/01 06:07:43;;;;;;;0.10;0.10;;;;;;;;;;5056621;28;20228;-73
2023/08/01 06:10:10;;;;;;;0.10;0.10;;;;;;;;;;5033452;28;20275;-73
2023/08/01 06:12:37;;;;;;;0.03;0.03;;;;;;;;;;5061281;28;20540;-73
2023/08/01 06:15:04;;;;;;;0.10;0.10;;;;;;;;;;5046114;28;20243;-74
2023/08/01 06:17:31;;;;;;;0.10;0.10;;;;;;;;;;5051423;28;20239;-73
2023/08/01 06:19:57;;;;;;;0.10;0.10;;;;;;;;;;5046082;28;20271;-73
2023/08/01 06:22:23;;;;;;;0.10;0.10;;;;;;;;;;5051121;28;20258;-73
2023/08/01 06:24:50;;;;;;;0.10;0.10;;;;;;;;;;5046265;28;20247;-73
2023/08/01 06:27:17;;;;;;;0.10;0.10;;;;;;;;;;5051110;28;20315;-73
2023/08/01 06:29:45;;;;;;;0.10;0.10;;;;;;;;;;5046180;28;20523;-73
2023/08/01 06:32:11;;;;;;;0.10;0.10;;;;;;;;;;5051040;28;20246;-73
2023/08/01 06:34:38;;;;;;;0.10;0.10;;;;;;;;;;5046074;28;20274;-73
2023/08/01 06:37:04;;;;;;;0.10;0.10;;;;;;;;;;5050358;28;20263;-73
2023/08/01 06:39:31;;;;;;;0.10;0.10;;;;;;;;;;5046452;28;20211;-72
2023/08/01 06:41:57;;;;;;;0.10;0.10;;;;;;;;;;5049218;28;20242;-73
2023/08/01 06:44:23;;;;;;;0.10;0.10;;;;;;;;;;5046695;28;20395;-72
2023/08/01 06:46:51;;;;;;;0.10;0.10;;;;;;;;;;5048225;28;20246;-72
2023/08/01 06:49:18;;;;;;;0.10;0.10;;;;;;;;;;5048109;28;20279;-74
2023/08/01 06:51:44;;;;;;;0.10;0.10;;;;;;;;;;5047555;28;20263;-74
2023/08/01 06:54:10;;;;;;;0.00;0.00;;;;;;;;;;5011208;28;1085191;-74
2023/08/01 06:56:37;;;;;;;0.10;0.10;;;;;;;;;;5047920;28;20577;-76
2023/08/01 06:59:03;;;;;;;0.10;0.10;;;;;;;;;;5050953;28;20204;-74
2023/08/01 07:01:30;;;;;;;0.10;0.10;;;;;;;;;;5046786;28;20244;-75
2023/08/01 07:03:58;;;;;;;0.10;0.10;;;;;;;;;;5051509;28;20236;-75
2023/08/01 07:06:24;;;;;;;0.10;0.10;;;;;;;;;;5046051;28;20253;-75
2023/08/01 07:08:51;;;;;;;0.10;0.10;;;;;;;;;;5051688;28;20208;-75
2023/08/01 07:11:20;;;;;;;0.10;0.10;;;;;;;;;;5045122;28;20311;-75
2023/08/01 07:13:46;;;;;;;0.10;0.10;;;;;;;;;;5052589;28;20204;-74
2023/08/01 07:16:12;;;;;;;0.10;0.10;;;;;;;;;;5044380;28;20248;-74
2023/08/01 07:18:39;;;;;;;0.00;0.00;;;;;;;;;;5053478;28;20371;-75
2023/08/01 07:21:06;;;;;;;0.10;0.10;;;;;;;;;;5043075;28;20292;-74
2023/08/01 07:23:34;;;;;;;0.03;0.03;;;;;;;;;;5054189;28;20526;-74
2023/08/01 07:26:05;;;;;;;0.10;0.10;;;;;;;;;;5042775;28;20565;-74
2023/08/01 07:28:32;;;;;;;0.10;0.10;;;;;;;;;;5054150;28;20271;-74
2023/08/01 07:30:59;;;;;;;0.10;0.10;;;;;;;;;;5042177;28;20261;-75
2023/08/01 07:33:25;;;;;;;0.10;0.10;;;;;;;;;;5054999;28;20208;-74
2023/08/01 07:35:51;;;;;;;0.10;0.10;;;;;;;;;;5041241;28;20262;-75
2023/08/01 07:38:19;;;;;;;0.10;0.10;;;;;;;;;;5055688;28;20339;-75
2023/08/01 07:40:46;;;;;;;0.30;0.30;;;;;;;;;;5040395;28;20258;-75
2023/08/01 07:43:12;;;;;;;0.10;0.10;;;;;;;;;;5056289;28;20235;-75
2023/08/01 07:45:39;;;;;;;0.10;0.10;;;;;;;;;;5039621;28;20269;-75
2023/08/01 07:48:05;;;;;;;0.10;0.10;;;;;;;;;;5057000;28;20205;-74
2023/08/01 07:50:32;;;;;;;0.10;0.10;;;;;;;;;;5038484;28;20240;-74
2023/08/01 07:52:58;;;;;;;0.10;0.10;;;;;;;;;;5057669;28;20268;-75
2023/08/01 07:55:26;;;;;;;0.10;0.10;;;;;;;;;;5037445;28;20186;-74
2023/08/01 07:57:52;;;;;;;0.10;0.10;;;;;;;;;;5058458;28;20286;-74
2023/08/01 08:00:19;;;;;;;0.10;0.10;;;;;;;;;;5036746;28;20205;-75
2023/08/01 08:02:46;;;;;;;0.10;0.10;;;;;;;;;;5059248;28;20216;-74
2023/08/01 08:05:12;;;;;;;0.10;0.10;;;;;;;;;;5035805;28;20294;-74
2023/08/01 08:07:42;;;;;;;0.10;0.10;;;;;;;;;;5059983;28;20208;-73
2023/08/01 08:10:11;;;;;;;0.10;0.10;;;;;;;;;;5040286;28;20273;-74
2023/08/01 08:12:38;;;;;;;0.10;0.10;;;;;;;;;;5060298;28;20496;-74
2023/08/01 08:15:05;;;;;;;0.10;0.10;;;;;;;;;;5045060;28;20245;-74
2023/08/01 08:17:32;;;;;;;0.10;0.10;;;;;;;;;;5050169;28;20259;-74
2023/08/01 08:19:58;;;;;;;0.10;0.10;;;;;;;;;;5045226;28;20329;-74
2023/08/01 08:22:33;;;;;;;0.00;0.00;;;;;;;;;;5050190;28;20245;-74
2023/08/01 08:24:59;;;;;;;0.10;0.10;;;;;;;;;;5045068;28;20234;-74
2023/08/01 08:27:26;;;;;;;0.10;0.10;;;;;;;;;;5050174;28;20254;-74
2023/08/01 08:29:55;;;;;;;0.10;0.10;;;;;;;;;;5044964;28;20229;-74
2023/08/01 08:32:21;;;;;;;0.10;0.10;;;;;;;;;;5049326;28;20240;-74
2023/08/01 08:34:47;;;;;;;0.10;0.10;;;;;;;;;;5045076;28;20232;-74
2023/08/01 08:37:14;;;;;;;0.10;0.10;;;;;;;;;;5049873;28;20492;-74
2023/08/01 08:39:40;;;;;;;0.00;0.00;;;;;;;;;;5044978;28;20272;-74
2023/08/01 08:42:07;;;;;;;0.00;0.00;;;;;;;;;;5049571;28;20311;-75
2023/08/01 08:44:35;;;;;;;0.10;0.10;;;;;;;;;;5045042;28;20221;-75
2023/08/01 08:47:06;;;;;;;0.10;0.10;;;;;;;;;;5048867;28;20263;-74
2023/08/01 08:49:33;;;;;;;0.10;0.10;;;;;;;;;;5045168;28;20243;-75
2023/08/01 08:51:59;;;;;;;0.03;0.03;;;;;;;;;;5048424;28;20484;-75
2023/08/01 08:54:25;;;;;;;0.10;0.10;;;;;;;;;;5045079;28;20294;-74
2023/08/01 08:56:52;;;;;;;0.10;0.10;;;;;;;;;;5047474;28;20240;-75
2023/08/01 08:59:21;;;;;;;0.10;0.10;;;;;;;;;;5046758;28;20216;-75
2023/08/01 09:01:48;;;;;;;0.10;0.10;;;;;;;;;;5046867;28;20246;-76
2023/08/01 09:04:15;;;;;;;0.05;0.05;;;;;;;;;;5046878;28;20274;-76
2023/08/01 09:06:45;;;;;;;0.10;0.10;;;;;;;;;;5045944;28;20255;-75
2023/08/01 09:09:12;;;;;;;0.10;0.10;;;;;;;;;;5047213;28;20402;-75
2023/08/01 09:11:40;;;;;;;0.10;0.10;;;;;;;;;;5045470;28;20244;-76
2023/08/01 09:14:07;;;;;;;0.10;0.10;;;;;;;;;;5047844;28;20201;-75
2023/08/01 09:16:34;;;;;;;0.10;0.10;;;;;;;;;;5044832;28;20301;-75
2023/08/01 09:19:00;;;;;;;0.10;0.10;;;;;;;;;;5048613;28;20276;-75
2023/08/01 09:21:33;;;;;;;0.10;0.10;;;;;;;;;;5043801;28;20244;-75
2023/08/01 09:24:08;;;;;;;0.10;0.10;;;;;;;;;;5048506;28;20239;-74
2023/08/01 09:26:34;;;;;;;0.10;0.10;;;;;;;;;;5044759;28;20254;-75
2023/08/01 09:29:06;;;;;;;0.10;0.10;;;;;;;;;;5048399;28;20269;-74
2023/08/01 09:31:33;;;;;;;0.10;0.10;;;;;;;;;;5044355;28;20248;-75
2023/08/01 09:33:59;;;;;;;0.10;0.10;;;;;;;;;;5048184;28;20253;-74
2023/08/01 09:36:27;;;;;;;0.10;0.10;;;;;;;;;;5043467;28;20442;-75
2023/08/01 09:38:58;;;;;;;0.10;0.10;;;;;;;;;;5049017;28;20282;-75
2023/08/01 09:41:25;;;;;;;0.03;0.03;;;;;;;;;;5043445;28;20267;-75
2023/08/01 09:43:51;;;;;;;0.00;0.00;;;;;;;;;;5049133;28;20292;-74
2023/08/01 09:46:17;;;;;;;0.00;0.00;;;;;;;;;;5042354;28;20264;-74
2023/08/01 09:48:44;;;;;;;0.10;0.10;;;;;;;;;;5050213;28;20243;-74
2023/08/01 09:51:11;;;;;;;0.05;0.05;;;;;;;;;;5041406;28;20277;-74
2023/08/01 09:53:48;;;;;;;0.10;0.10;;;;;;;;;;5050406;28;20233;-74
2023/08/01 09:56:16;;;;;;;0.10;0.10;;;;;;;;;;5041580;28;20247;-74
2023/08/01 09:58:43;;;;;;;0.10;0.10;;;;;;;;;;5050330;28;20263;-75
2023/08/01 10:01:09;;;;;;;0.10;0.10;;;;;;;;;;5041198;28;20301;-75
2023/08/01 10:03:35;;;;;;;0.10;0.10;;;;;;;;;;5051121;28;20226;-74
2023/08/01 10:06:02;;;;;;;0.10;0.10;;;;;;;;;;5039872;28;20256;-75
2023/08/01 10:08:32;;;;;;;0.10;0.10;;;;;;;;;;5052097;28;20213;-74
2023/08/01 10:10:59;;;;;;;0.10;0.10;;;;;;;;;;5039656;28;20670;-75
2023/08/01 10:13:27;;;;;;;0.40;0.40;;;;;;;;;;5052354;28;20273;-74
2023/08/01 10:15:54;;;;;;;0.10;0.10;;;;;;;;;;5039040;28;20256;-74
2023/08/01 10:18:21;;;;;;;0.10;0.10;;;;;;;;;;5052937;28;20204;-74
2023/08/01 10:20:48;;;;;;;0.10;0.10;;;;;;;;;;5038240;28;20442;-74
2023/08/01 10:23:15;;;;;;;0.10;0.10;;;;;;;;;;5053537;28;20445;-74
2023/08/01 10:25:42;;;;;;;0.00;0.00;;;;;;;;;;5037219;28;20297;-74
2023/08/01 10:28:09;;;;;;;0.10;0.10;;;;;;;;;;5054416;28;20272;-75
2023/08/01 10:30:36;;;;;;;0.10;0.10;;;;;;;;;;5036407;28;20307;-75
2023/08/01 10:33:02;;;;;;;0.10;0.10;;;;;;;;;;5054872;28;20212;-75
2023/08/01 10:35:38;;;;;;;0.10;0.10;;;;;;;;;;5035612;28;20250;-74
2023/08/01 10:38:05;;;;;;;0.10;0.10;;;;;;;;;;5054787;28;20408;-74
2023/08/01 10:40:35;;;;;;;8.85;2.65;;;;;;;;;;5036049;28;20630;-74
2023/08/01 10:43:01;;;;;;;0.10;0.10;;;;;;;;;;5055133;28;20383;-75
2023/08/01 10:45:29;;;;;;;0.10;0.10;;;;;;;;;;5035344;28;20256;-74
2023/08/01 10:48:06;;;;;;;0.00;0.00;;;;;;;;;;5055878;28;20389;-74
2023/08/01 10:50:33;;;;;;;0.10;0.10;;;;;;;;;;5036063;28;20304;-74
2023/08/01 10:53:03;;;;;;;0.10;0.10;;;;;;;;;;5054843;28;20277;-74
2023/08/01 10:55:38;;;;;;;0.10;0.10;;;;;;;;;;5035507;28;20346;-73
2023/08/01 10:58:05;;;;;;;0.10;0.10;;;;;;;;;;5058416;28;20393;-71
2023/08/01 11:00:32;;;;;;;0.10;0.10;;;;;;;;;;5039207;28;20242;-72
2023/08/01 11:02:59;;;;;;;0.00;0.00;;;;;;;;;;5058882;28;20278;-71
2023/08/01 11:05:28;;;;;;;0.05;0.05;;;;;;;;;;5038772;28;20237;-70
2023/08/01 11:07:55;;;;;;;0.10;0.10;;;;;;;;;;5059409;28;20207;-74
2023/08/01 11:10:21;;;;;;;0.05;0.05;;;;;;;;;;5037800;28;20208;-73
2023/08/01 11:12:47;;;;;;;0.00;0.00;;;;;;;;;;5059985;28;20234;-73
2023/08/01 11:15:14;;;;;;;0.10;0.10;;;;;;;;;;5037029;28;20447;-73
2023/08/01 11:17:42;;;;;;;0.10;0.10;;;;;;;;;;5060620;28;20261;-73
2023/08/01 11:20:10;;;;;;;0.10;0.10;;;;;;;;;;5036346;28;20278;-75
2023/08/01 11:22:36;;;;;;;0.10;0.10;;;;;;;;;;5061013;28;20207;-75
2023/08/01 11:25:03;;;;;;;0.00;0.00;;;;;;;;;;5046173;28;20447;-71
2023/08/01 11:27:29;;;;;;;0.10;0.10;;;;;;;;;;5051211;28;20488;-76
2023/08/01 11:29:56;;;;;;;0.00;0.00;;;;;;;;;;5046155;28;20410;-76
2023/08/01 11:32:33;;;;;;;0.10;0.10;;;;;;;;;;5051306;28;20477;-77
2023/08/01 11:35:00;;;;;;;0.00;0.00;;;;;;;;;;5046203;28;20221;-75
2023/08/01 11:37:27;;;;;;;0.10;0.10;;;;;;;;;;5051146;28;20260;-77
2023/08/01 11:39:53;;;;;;;0.00;0.00;;;;;;;;;;5046031;28;20245;-76
2023/08/01 11:42:20;;;;;;;0.05;0.05;;;;;;;;;;5050962;28;20242;-77
2023/08/01 11:44:46;;;;;;;0.05;0.05;;;;;;;;;;5046063;28;20240;-77
2023/08/01 11:47:14;;;;;;;0.55;0.55;;;;;;;;;;5050805;28;20267;-76
2023/08/01 11:49:45;;;;;;;0.10;0.10;;;;;;;;;;5045507;28;20205;-75
2023/08/01 11:52:22;;;;;;;0.10;0.10;;;;;;;;;;5050900;28;20328;-74
2023/08/01 11:54:48;;;;;;;0.20;0.20;;;;;;;;;;5045286;28;20268;-75
2023/08/01 11:57:15;;;;;;;0.05;0.05;;;;;;;;;;5050691;28;20330;-73
2023/08/01 11:59:49;;;;;;;0.03;0.03;;;;;;;;;;5045878;28;20493;-73
2023/08/01 12:02:22;;;;;;;0.08;0.08;;;;;;;;;;5050651;28;20248;-73
2023/08/01 12:04:49;;;;;;;0.03;0.03;;;;;;;;;;5045680;28;20281;-73
2023/08/01 12:07:19;;;;;;;0.10;0.10;;;;;;;;;;5049676;28;20287;-74
2023/08/01 12:09:55;;;;;;;0.10;0.10;;;;;;;;;;5045606;28;20220;-75
2023/08/01 12:12:21;;;;;;;0.00;0.00;;;;;;;;;;5050522;28;20265;-74
2023/08/01 12:14:50;;;;;;;0.00;0.00;;;;;;;;;;5045671;28;20206;-75
2023/08/01 12:17:16;;;;;;;0.00;0.00;;;;;;;;;;5050363;28;20262;-75
2023/08/01 12:19:42;;;;;;;0.00;0.00;;;;;;;;;;5045470;28;20228;-74
2023/08/01 12:22:10;;;;;;;0.10;0.10;;;;;;;;;;5050211;28;20243;-74
2023/08/01 12:24:38;;;;;;;0.00;0.00;;;;;;;;;;5045343;28;20224;-74
2023/08/01 12:27:05;;;;;;;0.10;0.10;;;;;;;;;;5049651;28;20240;-74
2023/08/01 12:29:32;;;;;;;0.10;0.10;;;;;;;;;;5045476;28;20453;-74
2023/08/01 12:31:58;;;;;;;0.00;0.00;;;;;;;;;;5049121;28;20254;-75
2023/08/01 12:34:25;;;;;;;0.00;0.00;;;;;;;;;;5046318;28;20242;-75
2023/08/01 12:36:51;;;;;;;0.08;0.08;;;;;;;;;;5047711;28;20255;-75
2023/08/01 12:39:17;;;;;;;0.10;0.10;;;;;;;;;;5046708;28;20239;-74
2023/08/01 12:41:45;;;;;;;0.00;0.00;;;;;;;;;;5046602;28;20247;-74
2023/08/01 12:44:12;;;;;;;0.00;0.00;;;;;;;;;;5047895;28;20525;-74
2023/08/01 12:46:39;;;;;;;0.00;0.00;;;;;;;;;;5046012;28;20243;-75
2023/08/01 12:49:05;;;;;;;0.05;0.05;;;;;;;;;;5048364;28;20208;-75
2023/08/01 12:51:31;;;;;;;0.00;0.00;;;;;;;;;;5045008;28;20240;-75
2023/08/01 12:53:58;;;;;;;0.00;0.00;;;;;;;;;;5048675;28;20437;-75
2023/08/01 12:56:24;;;;;;;0.00;0.00;;;;;;;;;;5044006;28;20303;-75
2023/08/01 12:58:52;;;;;;;0.00;0.00;;;;;;;;;;5050028;28;20204;-76
2023/08/01 13:01:18;;;;;;;0.00;0.00;;;;;;;;;;5043313;28;20244;-76
2023/08/01 13:03:45;;;;;;;0.00;0.00;;;;;;;;;;5050578;28;20239;-75
2023/08/01 13:06:12;;;;;;;0.00;0.00;;;;;;;;;;5042201;28;20507;-75
2023/08/01 13:08:39;;;;;;;0.00;0.00;;;;;;;;;;5051297;28;20204;-76
2023/08/01 13:11:10;;;;;;;0.00;0.00;;;;;;;;;;5041147;28;20306;-76
2023/08/01 13:13:36;;;;;;;0.00;0.00;;;;;;;;;;5051739;28;20205;-74
2023/08/01 13:16:05;;;;;;;0.00;0.00;;;;;;;;;;5040956;28;20278;-74
2023/08/01 13:18:31;;;;;;;0.00;0.00;;;;;;;;;;5051881;28;20285;-75
2023/08/01 13:20:59;;;;;;;0.00;0.00;;;;;;;;;;5039993;28;20255;-75
2023/08/01 13:23:25;;;;;;;0.10;0.10;;;;;;;;;;5053016;28;20228;-74
2023/08/01 13:25:52;;;;;;;0.00;0.00;;;;;;;;;;5039269;28;20307;-75
2023/08/01 13:28:18;;;;;;;0.00;0.00;;;;;;;;;;5053785;28;20212;-74
2023/08/01 13:30:44;;;;;;;0.00;0.00;;;;;;;;;;5038375;28;20247;-74
2023/08/01 13:33:12;;;;;;;0.00;0.00;;;;;;;;;;5054684;28;20244;-74
2023/08/01 13:35:38;;;;;;;0.00;0.00;;;;;;;;;;5037638;28;20243;-74
2023/08/01 13:38:07;;;;;;;0.00;0.00;;;;;;;;;;5055346;28;20205;-74
2023/08/01 13:40:33;;;;;;;0.00;0.00;;;;;;;;;;5036856;28;20334;-74
2023/08/01 13:42:59;;;;;;;0.00;0.00;;;;;;;;;;5055634;28;20204;-74
2023/08/01 13:45:26;;;;;;;0.15;0.15;;;;;;;;;;5035462;28;20296;-74
2023/08/01 13:47:52;;;;;;;0.00;0.00;;;;;;;;;;5056540;28;20250;-74
2023/08/01 13:50:20;;;;;;;0.00;0.00;;;;;;;;;;5034560;28;20205;-74
2023/08/01 13:52:46;;;;;;;0.00;0.00;;;;;;;;;;5056991;28;20233;-75
2023/08/01 13:55:14;;;;;;;0.00;0.00;;;;;;;;;;5034148;28;20445;-75
2023/08/01 13:57:41;;;;;;;0.10;0.10;;;;;;;;;;5058300;28;20362;-73
2023/08/01 14:00:08;;;;;;;0.00;0.00;;;;;;;;;;5040964;28;20361;-74
2023/08/01 14:02:35;;;;;;;0.00;0.00;;;;;;;;;;5058522;28;20219;-74
2023/08/01 14:05:03;;;;;;;0.10;0.10;;;;;;;;;;5043505;28;20292;-73
2023/08/01 14:07:31;;;;;;;0.00;0.00;;;;;;;;;;5048635;28;20263;-74
2023/08/01 14:09:58;;;;;;;0.00;0.00;;;;;;;;;;5043573;28;20272;-74
2023/08/01 14:12:26;;;;;;;0.03;0.03;;;;;;;;;;5048597;28;20494;-74
2023/08/01 14:14:52;;;;;;;0.10;0.10;;;;;;;;;;5043202;28;20209;-75
2023/08/01 14:17:18;;;;;;;0.03;0.03;;;;;;;;;;5048601;28;20495;-74
2023/08/01 14:19:45;;;;;;;0.00;0.00;;;;;;;;;;5043744;28;20233;-74
2023/08/01 14:22:11;;;;;;;0.05;0.05;;;;;;;;;;5048447;28;20249;-75
2023/08/01 14:24:39;;;;;;;0.10;0.10;;;;;;;;;;5043524;28;20260;-74
2023/08/01 14:27:05;;;;;;;0.10;0.10;;;;;;;;;;5048199;28;20457;-74
2023/08/01 14:29:32;;;;;;;0.10;0.10;;;;;;;;;;5043837;28;20394;-74
2023/08/01 14:31:58;;;;;;;0.00;0.00;;;;;;;;;;5049631;28;20248;-75
2023/08/01 14:34:25;;;;;;;0.00;0.00;;;;;;;;;;5048642;28;20236;-74
2023/08/01 14:36:51;;;;;;;0.00;0.00;;;;;;;;;;5049986;28;20244;-75
2023/08/01 14:39:17;;;;;;;0.10;0.10;;;;;;;;;;5049340;28;20241;-75
2023/08/01 14:41:45;;;;;;;0.00;0.00;;;;;;;;;;5049006;28;20245;-75